Time;durP1;ratioP1;P1;durP2;ratioP2;P2;SDS_P1;SDS_P2;PMS_P1;PMS_P2;Temp;Humidity;BMP_temperature;BMP_pressure;BME280_temperature;BME280_humidity;BME280_pressure;Samples;Min_cycle;Max_cycle;Signal;HPM_P1;HPM_P2
2022/06/01 00:02:53;;;;;;;;;;;;;;;-145.66;100.00;59599.19;10539722;28;20260;-66
2022/06/01 00:07:55;;;;;;;;;;;;;;;-145.66;100.00;59599.19;10540741;28;19926;-66
2022/06/01 00:12:57;;;;;;;;;;;;;;;-145.66;100.00;59599.19;10540271;28;19920;-66
2022/06/01 00:18:00;;;;;;;;;;;;;;;-145.66;100.00;59599.19;10540661;28;19920;-66
2022/06/01 00:23:02;;;;;;;;;;;;;;;-145.66;100.00;59599.19;10539323;28;20390;-66
2022/06/01 00:28:05;;;;;;;;;;;;;;;-145.66;100.00;59599.19;10539838;28;20393;-66
2022/06/01 00:33:07;;;;;;;;;;;;;;;-145.66;100.00;59599.19;10539680;28;19920;-66
2022/06/01 00:38:10;;;;;;;;;;;;;;;-145.66;100.00;59599.19;10539891;28;19987;-66
2022/06/01 00:43:21;;;;;;;;;;;;;;;-145.66;100.00;59599.19;10539001;28;20014;-66
2022/06/01 00:48:24;;;;;;;;;;;;;;;-145.66;100.00;59599.19;10539989;28;19965;-66
2022/06/01 00:53:27;;;;;;;;;;;;;;;-145.66;100.00;59599.19;10522029;28;20013;-66
2022/06/01 00:58:33;;;;;;;;;;;;;;;-145.66;100.00;59599.19;10538862;28;20314;-66
2022/06/01 01:03:36;;;;;;;;;;;;;;;-145.66;100.00;59599.19;10542854;28;19926;-66
2022/06/01 01:08:40;;;;;;;;;;;;;;;-145.66;100.00;59599.19;10529761;28;19927;-66
2022/06/01 01:13:44;;;;;;;;;;;;;;;-145.66;100.00;59599.19;10538740;22;19920;-66
2022/06/01 01:18:46;;;;;;;;;;;;;;;-145.66;100.00;59599.19;10547136;28;19926;-66
2022/06/01 01:24:07;;;;;;;;;;;;;;;-145.66;100.00;59599.19;10546953;28;19920;-66
2022/06/01 01:29:10;;;;;;;;;;;;;;;-145.66;100.00;59599.19;10547307;28;19920;-66
2022/06/01 01:34:12;;;;;;;;;;;;;;;-145.66;100.00;59599.19;10527937;28;19919;-66
2022/06/01 01:39:15;;;;;;;;;;;;;;;-145.66;100.00;59599.19;10546556;28;19920;-66
2022/06/01 01:44:28;;;;;;;;;;;;;;;-145.66;100.00;59599.19;10544054;28;19926;-66
2022/06/01 01:49:31;;;;;;;;;;;;;;;-145.66;100.00;59599.19;10527553;28;20397;-66
2022/06/01 01:54:42;;;;;;;;;;;;;;;-145.66;100.00;59599.19;10528214;28;19924;-66
2022/06/01 02:00:05;;;;;;;;;;;;;;;-145.66;100.00;59599.19;10544264;28;20017;-66
2022/06/01 02:15:53;;;;;;;;;;;;;;;-145.66;100.00;59599.19;10530639;28;19931;-66
2022/06/01 02:20:57;;;;;;;;;;;;;;;-145.66;100.00;59599.19;10544921;28;19935;-66
2022/06/01 02:26:00;;;;;;;;;;;;;;;-145.66;100.00;59599.19;10525755;28;19920;-66
2022/06/01 02:31:02;;;;;;;;;;;;;;;-145.66;100.00;59599.19;10525870;28;19927;-66
2022/06/01 02:36:05;;;;;;;;;;;;;;;-145.66;100.00;59599.19;10526330;28;19977;-67
2022/06/01 02:42:25;;;;;;;;;;;;;;;-145.66;100.00;59599.19;10525323;28;20370;-66
2022/06/01 02:46:29;;;;;;;;;;;;;;;-145.66;100.00;59599.19;10535760;28;19920;-66
2022/06/01 02:51:32;;;;;;;;;;;;;;;-145.66;100.00;59599.19;10543749;28;19920;-66
2022/06/01 02:56:34;;;;;;;;;;;;;;;-145.66;100.00;59599.19;10538487;28;19939;-66
2022/06/01 03:01:36;;;;;;;;;;;;;;;-145.66;100.00;59599.19;10543033;28;19920;-66
2022/06/01 03:06:39;;;;;;;;;;;;;;;-145.66;100.00;59599.19;10541341;28;19924;-66
2022/06/01 03:12:01;;;;;;;;;;;;;;;-145.66;100.00;59599.19;10539888;28;19920;-66
2022/06/01 03:17:04;;;;;;;;;;;;;;;-145.66;100.00;59599.19;10524161;28;20286;-66
2022/06/01 03:22:07;;;;;;;;;;;;;;;-145.66;100.00;59599.19;10542459;28;20358;-66
2022/06/01 03:27:09;;;;;;;;;;;;;;;-145.66;100.00;59599.19;10542114;28;19926;-67
2022/06/01 03:32:11;;;;;;;;;;;;;;;-145.66;100.00;59599.19;10541713;28;20359;-66
2022/06/01 03:37:13;;;;;;;;;;;;;;;-145.66;100.00;59599.19;10541970;28;19962;-66
2022/06/01 03:42:16;;;;;;;;;;;;;;;-145.66;100.00;59599.19;10540769;28;20389;-66
2022/06/01 03:47:18;;;;;;;;;;;;;;;-145.66;100.00;59599.19;10540874;28;19920;-66
2022/06/01 03:52:20;;;;;;;;;;;;;;;-145.66;100.00;59599.19;10540755;28;19919;-66
2022/06/01 03:57:22;;;;;;;;;;;;;;;-145.66;100.00;59599.19;10540436;28;19950;-66
2022/06/01 04:02:24;;;;;;;;;;;;;;;-145.66;100.00;59599.19;10539702;28;19930;-66
2022/06/01 04:07:27;;;;;;;;;;;;;;;-145.66;100.00;59599.19;10514863;28;19926;-66
2022/06/01 04:12:29;;;;;;;;;;;;;;;-145.66;100.00;59599.19;10540454;28;19920;-66
2022/06/01 04:17:31;;;;;;;;;;;;;;;-145.66;100.00;59599.19;10540735;28;19920;-66
2022/06/01 04:22:34;;;;;;;;;;;;;;;-145.66;100.00;59599.19;10538972;28;19920;-66
2022/06/01 04:27:38;;;;;;;;;;;;;;;-145.66;100.00;59599.19;10522676;28;19920;-66
2022/06/01 04:32:41;;;;;;;;;;;;;;;-145.66;100.00;59599.19;10540420;28;19920;-66
2022/06/01 04:37:43;;;;;;;;;;;;;;;-145.66;100.00;59599.19;10523400;28;20321;-65
2022/06/01 04:42:45;;;;;;;;;;;;;;;-145.66;100.00;59599.19;10546165;28;20291;-66
2022/06/01 04:47:47;;;;;;;;;;;;;;;-145.66;100.00;59599.19;10548610;28;19920;-66
2022/06/01 04:52:50;;;;;;;;;;;;;;;-145.66;100.00;59599.19;10548361;28;19927;-66
2022/06/01 04:57:52;;;;;;;;;;;;;;;-145.66;100.00;59599.19;10547381;28;19920;-66
2022/06/01 05:02:54;;;;;;;;;;;;;;;-145.66;100.00;59599.19;10546856;28;19947;-66
2022/06/01 05:07:57;;;;;;;;;;;;;;;-145.66;100.00;59599.19;10547756;28;19920;-66
2022/06/01 05:12:59;;;;;;;;;;;;;;;-145.66;100.00;59599.19;10547127;28;19927;-66
2022/06/01 05:18:01;;;;;;;;;;;;;;;-145.66;100.00;59599.19;10542628;28;19927;-66
2022/06/01 05:23:03;;;;;;;;;;;;;;;-145.66;100.00;59599.19;10547074;28;19919;-66
2022/06/01 05:28:07;;;;;;;;;;;;;;;-145.66;100.00;59599.19;10528629;28;19985;-67
2022/06/01 05:33:09;;;;;;;;;;;;;;;-145.66;100.00;59599.19;10546527;28;19926;-67
2022/06/01 05:38:11;;;;;;;;;;;;;;;-145.66;100.00;59599.19;10546701;28;19920;-67
2022/06/01 05:43:14;;;;;;;;;;;;;;;-145.66;100.00;59599.19;10544784;28;19927;-67
2022/06/01 05:48:17;;;;;;;;;;;;;;;-145.66;100.00;59599.19;10528087;28;19998;-67
2022/06/01 05:53:20;;;;;;;;;;;;;;;-145.66;100.00;59599.19;10545669;28;19927;-67
2022/06/01 05:58:23;;;;;;;;;;;;;;;-145.66;100.00;59599.19;10525864;28;19927;-67
2022/06/01 06:03:26;;;;;;;;;;;;;;;-145.66;100.00;59599.19;10543969;28;19920;-67
2022/06/01 06:08:32;;;;;;;;;;;;;;;-145.66;100.00;59599.19;10543812;28;19920;-67
2022/06/01 06:13:35;;;;;;;;;;;;;;;-145.66;100.00;59599.19;10543132;28;19930;-67
2022/06/01 06:18:37;;;;;;;;;;;;;;;-145.66;100.00;59599.19;10539641;28;20388;-67
2022/06/01 06:23:39;;;;;;;;;;;;;;;-145.66;100.00;59599.19;10542431;28;19920;-67
2022/06/01 06:28:43;;;;;;;;;;;;;;;-145.66;100.00;59599.19;10526617;28;19920;-67
2022/06/01 06:33:45;;;;;;;;;;;;;;;-145.66;100.00;59599.19;10544022;28;19931;-67
2022/06/01 06:38:48;;;;;;;;;;;;;;;-145.66;100.00;59599.19;10543577;28;20279;-65
2022/06/01 06:43:51;;;;;;;;;;;;;;;-145.66;100.00;59599.19;10525450;28;20287;-66
2022/06/01 06:48:53;;;;;;;;;;;;;;;-145.66;100.00;59599.19;10543201;28;20336;-67
2022/06/01 06:53:55;;;;;;;;;;;;;;;-145.66;100.00;59599.19;10543581;28;19924;-68
2022/06/01 06:59:00;;;;;;;;;;;;;;;-145.66;100.00;59599.19;10543430;28;19919;-68
2022/06/01 07:04:02;;;;;;;;;;;;;;;-145.66;100.00;59599.19;10524002;28;19927;-68
2022/06/01 07:09:04;;;;;;;;;;;;;;;-145.66;100.00;59599.19;10542338;28;20302;-69
2022/06/01 07:14:06;;;;;;;;;;;;;;;-145.66;100.00;59599.19;10524007;28;20382;-68
2022/06/01 07:19:09;;;;;;;;;;;;;;;-145.66;100.00;59599.19;10524754;28;19920;-69
2022/06/01 07:24:11;;;;;;;;;;;;;;;-145.66;100.00;59599.19;10542473;28;19920;-69
2022/06/01 07:29:14;;;;;;;;;;;;;;;-145.66;100.00;59599.19;10542289;28;19920;-69
2022/06/01 07:34:17;;;;;;;;;;;;;;;-145.66;100.00;59599.19;10506973;28;19926;-69
2022/06/01 07:44:40;;;;;;;;;;;;;;;-145.66;100.00;59599.19;10541970;28;19920;-69
2022/06/01 07:49:43;;;;;;;;;;;;;;;-145.66;100.00;59599.19;10541408;28;19920;-69
2022/06/01 07:55:05;;;;;;;;;;;;;;;-145.66;100.00;59599.19;10525995;28;19927;-67
2022/06/01 08:00:08;;;;;;;;;;;;;;;-145.66;100.00;59599.19;10540691;28;19935;-68
2022/06/01 08:05:11;;;;;;;;;;;;;;;-145.66;100.00;59599.19;10540215;28;20264;-67
2022/06/01 08:10:15;;;;;;;;;;;;;;;-145.66;100.00;59599.19;10540864;28;19920;-67
2022/06/01 08:15:17;;;;;;;;;;;;;;;-145.66;100.00;59599.19;10522228;28;19927;-68
2022/06/01 08:20:25;;;;;;;;;;;;;;;-145.66;100.00;59599.19;10540056;28;19924;-67
2022/06/01 08:25:28;;;;;;;;;;;;;;;-145.66;100.00;59599.19;10523168;28;19955;-67
2022/06/01 08:30:31;;;;;;;;;;;;;;;-145.66;100.00;59599.19;10540374;28;19920;-68
2022/06/01 08:35:34;;;;;;;;;;;;;;;-145.66;100.00;59599.19;10540450;28;19920;-68
2022/06/01 08:40:56;;;;;;;;;;;;;;;-145.66;100.00;59599.19;10539700;28;20297;-68
2022/06/01 08:45:59;;;;;;;;;;;;;;;-145.66;100.00;59599.19;10525750;28;19920;-68
2022/06/01 08:51:03;;;;;;;;;;;;;;;-145.66;100.00;59599.19;10521496;28;20367;-67
2022/06/01 08:56:10;;;;;;;;;;;;;;;-145.66;100.00;59599.19;10540101;28;19931;-68
2022/06/01 09:01:15;;;;;;;;;;;;;;;-145.66;100.00;59599.19;10521810;28;19920;-68
2022/06/01 09:06:17;;;;;;;;;;;;;;;-145.66;100.00;59599.19;10521968;28;19967;-68
2022/06/01 09:11:29;;;;;;;;;;;;;;;-145.66;100.00;59599.19;10538776;28;20283;-68
2022/06/01 09:16:36;;;;;;;;;;;;;;;-145.66;100.00;59599.19;10537269;28;19924;-68
2022/06/01 09:27:07;;;;;;;;;;;;;;;-145.66;100.00;59599.19;10546393;28;19926;-68
2022/06/01 09:32:24;;;;;;;;;;;;;;;-145.66;100.00;59599.19;10546283;28;20287;-68
2022/06/01 09:37:31;;;;;;;;;;;;;;;-145.66;100.00;59599.19;10546209;28;20385;-68
2022/06/01 09:42:35;;;;;;;;;;;;;;;-145.66;100.00;59599.19;10545910;28;20393;-68
2022/06/01 09:47:39;;;;;;;;;;;;;;;-145.66;100.00;59599.19;10546233;28;19927;-67
2022/06/01 09:52:42;;;;;;;;;;;;;;;-145.66;100.00;59599.19;10546047;28;20018;-67
2022/06/01 09:57:59;;;;;;;;;;;;;;;-145.66;100.00;59599.19;10528040;28;19932;-68
2022/06/01 10:08:23;;;;;;;;;;;;;;;-145.66;100.00;59599.19;10530358;28;19920;-68
2022/06/01 10:13:35;;;;;;;;;;;;;;;-145.66;100.00;59599.19;10544381;28;19923;-67
2022/06/01 10:18:37;;;;;;;;;;;;;;;-145.66;100.00;59599.19;10526878;28;19920;-68
2022/06/01 10:23:47;;;;;;;;;;;;;;;-145.66;100.00;59599.19;10544921;28;19920;-67
2022/06/01 10:28:53;;;;;;;;;;;;;;;-145.66;100.00;59599.19;10527234;28;19920;-67
2022/06/01 10:34:18;;;;;;;;;;;;;;;-145.66;100.00;59599.19;10525721;28;20027;-67
2022/06/01 10:39:25;;;;;;;;;;;;;;;-145.66;100.00;59599.19;10512332;28;19959;-67
2022/06/01 10:44:30;;;;;;;;;;;;;;;-145.66;100.00;59599.19;10526649;28;19920;-66
2022/06/01 10:49:40;;;;;;;;;;;;;;;-145.66;100.00;59599.19;10525928;28;20014;-67
2022/06/01 10:54:50;;;;;;;;;;;;;;;-145.66;100.00;59599.19;10525092;28;19920;-66
2022/06/01 10:59:52;;;;;;;;;;;;;;;-145.66;100.00;59599.19;10525487;28;19949;-67
2022/06/01 11:05:13;;;;;;;;;;;;;;;-145.66;100.00;59599.19;10523974;28;20290;-67
2022/06/01 11:10:27;;;;;;;;;;;;;;;-145.66;100.00;59599.19;10543598;28;19924;-67
2022/06/01 11:15:48;;;;;;;;;;;;;;;-145.66;100.00;59599.19;10542561;28;20256;-67
2022/06/01 11:21:05;;;;;;;;;;;;;;;-145.66;100.00;59599.19;10542657;28;19950;-67
2022/06/01 11:26:10;;;;;;;;;;;;;;;-145.66;100.00;59599.19;10542505;28;19920;-67
2022/06/01 11:31:23;;;;;;;;;;;;;;;-145.66;100.00;59599.19;10541516;28;20280;-68
2022/06/01 11:36:39;;;;;;;;;;;;;;;-145.66;100.00;59599.19;10523480;28;20321;-71
2022/06/01 11:41:44;;;;;;;;;;;;;;;-145.66;100.00;59599.19;10541854;28;19920;-69
2022/06/01 11:46:52;;;;;;;;;;;;;;;-145.66;100.00;59599.19;10523819;28;19927;-70
2022/06/01 11:51:54;;;;;;;;;;;;;;;-145.66;100.00;59599.19;10522161;28;20375;-69
2022/06/01 11:56:59;;;;;;;;;;;;;;;-145.66;100.00;59599.19;10522119;28;20359;-71
2022/06/01 12:02:19;;;;;;;;;;;;;;;-145.66;100.00;59599.19;10541055;28;19920;-69
2022/06/01 12:07:22;;;;;;;;;;;;;;;-145.66;100.00;59599.19;10523124;28;20006;-70
2022/06/01 12:12:34;;;;;;;;;;;;;;;-145.66;100.00;59599.19;10522796;28;20051;-69
2022/06/01 12:17:36;;;;;;;;;;;;;;;-145.66;100.00;59599.19;10540779;28;19927;-70
2022/06/01 12:33:29;;;;;;;;;;;;;;;-145.66;100.00;59599.19;10539837;28;19927;-69
2022/06/01 12:38:33;;;;;;;;;;;;;;;-145.66;100.00;59599.19;10540430;28;19920;-70
2022/06/01 12:43:36;;;;;;;;;;;;;;;-145.66;100.00;59599.19;10522684;28;19942;-69
2022/06/01 12:48:38;;;;;;;;;;;;;;;-145.66;100.00;59599.19;10539556;28;19920;-69
2022/06/01 12:53:45;;;;;;;;;;;;;;;-145.66;100.00;59599.19;10539911;28;20282;-69
2022/06/01 12:58:50;;;;;;;;;;;;;;;-145.66;100.00;59599.19;10524206;28;19920;-69
2022/06/01 13:03:57;;;;;;;;;;;;;;;-145.66;100.00;59599.19;10531129;28;19920;-68
2022/06/01 13:09:01;;;;;;;;;;;;;;;-145.66;100.00;59599.19;10547959;28;19920;-68
2022/06/01 13:14:08;;;;;;;;;;;;;;;-145.66;100.00;59599.19;10547482;28;19920;-69
2022/06/01 13:19:14;;;;;;;;;;;;;;;-145.66;100.00;59599.19;10529622;28;19927;-69
2022/06/01 13:24:16;;;;;;;;;;;;;;;-145.66;100.00;59599.19;10547355;28;19927;-68
2022/06/01 13:29:20;;;;;;;;;;;;;;;-145.66;100.00;59599.19;10548457;22;19943;-65
2022/06/01 13:34:25;;;;;;;;;;;;;;;-145.66;100.00;59599.19;10546304;28;20263;-65
2022/06/01 13:39:29;;;;;;;;;;;;;;;-145.66;100.00;59599.19;10528675;28;19924;-64
2022/06/01 13:44:48;;;;;;;;;;;;;;;-145.66;100.00;59599.19;10546086;28;20018;-66
2022/06/01 13:49:51;;;;;;;;;;;;;;;-145.66;100.00;59599.19;10544707;28;19928;-65
2022/06/01 13:55:07;;;;;;;;;;;;;;;-145.66;100.00;59599.19;10536664;28;19926;-65
2022/06/01 14:00:18;;;;;;;;;;;;;;;-145.66;100.00;59599.19;10528045;28;19920;-65
2022/06/01 14:05:22;;;;;;;;;;;;;;;-145.66;100.00;59599.19;10545577;28;19927;-65
2022/06/01 14:10:33;;;;;;;;;;;;;;;-145.66;100.00;59599.19;10545197;28;19920;-65
2022/06/01 14:15:37;;;;;;;;;;;;;;;-145.66;100.00;59599.19;10527704;28;19920;-65
2022/06/01 14:20:39;;;;;;;;;;;;;;;-145.66;100.00;59599.19;10527286;28;19920;-65
2022/06/01 14:31:06;;;;;;;;;;;;;;;-145.66;100.00;59599.19;10543711;28;20370;-65
2022/06/01 14:36:09;;;;;;;;;;;;;;;-145.66;100.00;59599.19;10526575;28;19959;-65
2022/06/01 14:41:15;;;;;;;;;;;;;;;-145.66;100.00;59599.19;10543446;28;19920;-63
2022/06/01 14:46:17;;;;;;;;;;;;;;;-145.66;100.00;59599.19;10526664;28;19923;-66
2022/06/01 14:51:27;;;;;;;;;;;;;;;-145.66;100.00;59599.19;10543782;28;19920;-65
2022/06/01 14:56:30;;;;;;;;;;;;;;;-145.66;100.00;59599.19;10525693;28;19926;-66
2022/06/01 15:01:41;;;;;;;;;;;;;;;-145.66;100.00;59599.19;10542958;28;20393;-65
2022/06/01 15:06:46;;;;;;;;;;;;;;;-145.66;100.00;59599.19;10523012;28;19920;-65
2022/06/01 15:11:48;;;;;;;;;;;;;;;-145.66;100.00;59599.19;10541765;28;19973;-65
2022/06/01 15:16:52;;;;;;;;;;;;;;;-145.66;100.00;59599.19;10542885;28;19920;-65
2022/06/01 15:21:55;;;;;;;;;;;;;;;-145.66;100.00;59599.19;10542402;28;19966;-65
2022/06/01 15:26:57;;;;;;;;;;;;;;;-145.66;100.00;59599.19;10540703;28;19930;-66
2022/06/01 15:42:41;;;;;;;;;;;;;;;-145.66;100.00;59599.19;10535447;28;19927;-64
2022/06/01 15:47:51;;;;;;;;;;;;;;;-145.66;100.00;59599.19;10541112;28;19926;-65
2022/06/01 15:52:53;;;;;;;;;;;;;;;-145.66;100.00;59599.19;10521345;28;20363;-65
2022/06/01 15:57:56;;;;;;;;;;;;;;;-145.66;100.00;59599.19;10540702;28;19930;-64
2022/06/01 16:02:58;;;;;;;;;;;;;;;-145.66;100.00;59599.19;10537044;28;19927;-64
2022/06/01 16:08:00;;;;;;;;;;;;;;;-145.66;100.00;59599.19;10541020;28;19920;-64
2022/06/01 16:13:02;;;;;;;;;;;;;;;-145.66;100.00;59599.19;10539186;28;19920;-64
2022/06/01 16:18:05;;;;;;;;;;;;;;;-145.66;100.00;59599.19;10540809;28;19927;-66
2022/06/01 16:23:07;;;;;;;;;;;;;;;-145.66;100.00;59599.19;10541594;28;19924;-64
2022/06/01 16:28:09;;;;;;;;;;;;;;;-145.66;100.00;59599.19;10521607;28;20283;-64
2022/06/01 16:33:13;;;;;;;;;;;;;;;-145.66;100.00;59599.19;10539796;28;19920;-64
2022/06/01 16:38:16;;;;;;;;;;;;;;;-145.66;100.00;59599.19;10530544;28;20382;-64
2022/06/01 16:43:18;;;;;;;;;;;;;;;-145.66;100.00;59599.19;10547504;28;20277;-64
2022/06/01 16:48:20;;;;;;;;;;;;;;;-145.66;100.00;59599.19;10543198;28;20318;-63
2022/06/01 16:53:23;;;;;;;;;;;;;;;-145.66;100.00;59599.19;10530668;28;19920;-64
2022/06/01 16:58:25;;;;;;;;;;;;;;;-145.66;100.00;59599.19;10548455;28;19927;-63
2022/06/01 17:03:27;;;;;;;;;;;;;;;-145.66;100.00;59599.19;10529678;28;20462;-63
2022/06/01 17:08:30;;;;;;;;;;;;;;;-145.66;100.00;59599.19;10547423;28;20255;-63
2022/06/01 17:13:32;;;;;;;;;;;;;;;-145.66;100.00;59599.19;10529767;28;19919;-64
2022/06/01 17:18:34;;;;;;;;;;;;;;;-145.66;100.00;59599.19;10547064;28;20362;-64
2022/06/01 17:23:40;;;;;;;;;;;;;;;-145.66;100.00;59599.19;10547629;28;19924;-64
2022/06/01 17:28:42;;;;;;;;;;;;;;;-145.66;100.00;59599.19;10546718;28;19927;-64
2022/06/01 17:33:44;;;;;;;;;;;;;;;-145.66;100.00;59599.19;10546970;28;19927;-63
2022/06/01 17:38:46;;;;;;;;;;;;;;;-145.66;100.00;59599.19;10546740;28;19920;-63
2022/06/01 17:43:49;;;;;;;;;;;;;;;-145.66;100.00;59599.19;10545312;28;19928;-64
2022/06/01 17:48:51;;;;;;;;;;;;;;;-145.66;100.00;59599.19;10537218;28;19942;-64
2022/06/01 17:53:53;;;;;;;;;;;;;;;-145.66;100.00;59599.19;10528844;28;19920;-64
2022/06/01 17:58:56;;;;;;;;;;;;;;;-145.66;100.00;59599.19;10546020;28;19924;-63
2022/06/01 18:03:59;;;;;;;;;;;;;;;-145.66;100.00;59599.19;10545594;28;19928;-63
2022/06/01 18:09:02;;;;;;;;;;;;;;;-145.66;100.00;59599.19;10543891;28;19927;-63
2022/06/01 18:14:04;;;;;;;;;;;;;;;-145.66;100.00;59599.19;10526861;28;20256;-64
2022/06/01 18:19:07;;;;;;;;;;;;;;;-145.66;100.00;59599.19;10526764;28;19924;-64
2022/06/01 18:24:09;;;;;;;;;;;;;;;-145.66;100.00;59599.19;10525836;28;19920;-64
2022/06/01 18:29:13;;;;;;;;;;;;;;;-145.66;100.00;59599.19;10542708;28;19998;-64
2022/06/01 18:34:16;;;;;;;;;;;;;;;-145.66;100.00;59599.19;10526747;28;19926;-64
2022/06/01 18:39:18;;;;;;;;;;;;;;;-145.66;100.00;59599.19;10544345;28;19920;-64
2022/06/01 18:44:20;;;;;;;;;;;;;;;-145.66;100.00;59599.19;10542553;28;19920;-64
2022/06/01 18:49:23;;;;;;;;;;;;;;;-145.66;100.00;59599.19;10541619;28;20002;-64
2022/06/01 18:54:27;;;;;;;;;;;;;;;-145.66;100.00;59599.19;10543116;28;20294;-64
2022/06/01 19:04:50;;;;;;;;;;;;;;;-145.66;100.00;59599.19;10540201;28;19929;-64
2022/06/01 19:09:52;;;;;;;;;;;;;;;-145.66;100.00;59599.19;10534583;28;19920;-64
2022/06/01 19:14:56;;;;;;;;;;;;;;;-145.66;100.00;59599.19;10542328;28;20386;-64
2022/06/01 19:19:58;;;;;;;;;;;;;;;-145.66;100.00;59599.19;10540822;28;19920;-64
2022/06/01 19:25:01;;;;;;;;;;;;;;;-145.66;100.00;59599.19;10541948;28;19942;-64
2022/06/01 19:30:04;;;;;;;;;;;;;;;-145.66;100.00;59599.19;10538389;28;19920;-66
2022/06/01 19:35:07;;;;;;;;;;;;;;;-145.66;100.00;59599.19;10505887;28;19938;-66
2022/06/01 19:45:31;;;;;;;;;;;;;;;-145.66;100.00;59599.19;10522833;28;19920;-65
2022/06/01 19:50:34;;;;;;;;;;;;;;;-145.66;100.00;59599.19;10541083;28;20355;-65
2022/06/01 19:55:36;;;;;;;;;;;;;;;-145.66;100.00;59599.19;10541596;28;19926;-65
2022/06/01 20:00:38;;;;;;;;;;;;;;;-145.66;100.00;59599.19;10515263;28;19926;-65
2022/06/01 20:05:41;;;;;;;;;;;;;;;-145.66;100.00;59599.19;10521761;28;20416;-65
2022/06/01 20:10:43;;;;;;;;;;;;;;;-145.66;100.00;59599.19;10536953;28;19926;-65
2022/06/01 20:15:50;;;;;;;;;;;;;;;-145.66;100.00;59599.19;10535469;28;19920;-65
2022/06/01 20:20:52;;;;;;;;;;;;;;;-145.66;100.00;59599.19;10539216;28;19942;-65
2022/06/01 20:25:54;;;;;;;;;;;;;;;-145.66;100.00;59599.19;10539935;28;19920;-65
2022/06/01 20:30:56;;;;;;;;;;;;;;;-145.66;100.00;59599.19;10539909;28;19921;-64
2022/06/01 20:35:59;;;;;;;;;;;;;;;-145.66;100.00;59599.19;10521389;28;19919;-64
2022/06/01 20:41:01;;;;;;;;;;;;;;;-145.66;100.00;59599.19;10540103;28;19920;-64
2022/06/01 20:46:03;;;;;;;;;;;;;;;-145.66;100.00;59599.19;10538180;28;20412;-65
2022/06/01 20:51:06;;;;;;;;;;;;;;;-145.66;100.00;59599.19;10539850;28;19920;-65
2022/06/01 20:56:14;;;;;;;;;;;;;;;-145.66;100.00;59599.19;10540212;28;19927;-64
2022/06/01 21:01:16;;;;;;;;;;;;;;;-145.66;100.00;59599.19;10521944;28;19920;-65
2022/06/01 21:06:19;;;;;;;;;;;;;;;-145.66;100.00;59599.19;10538964;28;19920;-64
2022/06/01 21:11:21;;;;;;;;;;;;;;;-145.66;100.00;59599.19;10504208;28;20279;-65
2022/06/01 21:16:24;;;;;;;;;;;;;;;-145.66;100.00;59599.19;10531187;28;19920;-65
2022/06/01 21:21:26;;;;;;;;;;;;;;;-145.66;100.00;59599.19;10543656;28;19927;-64
2022/06/01 21:26:29;;;;;;;;;;;;;;;-145.66;100.00;59599.19;10544970;28;19949;-65
2022/06/01 21:31:31;;;;;;;;;;;;;;;-145.66;100.00;59599.19;10546607;28;20381;-64
2022/06/01 21:36:34;;;;;;;;;;;;;;;-145.66;100.00;59599.19;10546085;28;20307;-64
2022/06/01 21:41:36;;;;;;;;;;;;;;;-145.66;100.00;59599.19;10546947;28;19920;-65
2022/06/01 21:46:38;;;;;;;;;;;;;;;-145.66;100.00;59599.19;10526693;28;19927;-65
2022/06/01 21:51:40;;;;;;;;;;;;;;;-145.66;100.00;59599.19;10537906;28;19974;-65
2022/06/01 21:56:43;;;;;;;;;;;;;;;-145.66;100.00;59599.19;10545491;28;20445;-65
2022/06/01 22:01:45;;;;;;;;;;;;;;;-145.66;100.00;59599.19;10542392;28;19927;-65
2022/06/01 22:06:47;;;;;;;;;;;;;;;-145.66;100.00;59599.19;10545460;28;20022;-65
2022/06/01 22:17:10;;;;;;;;;;;;;;;-145.66;100.00;59599.19;10522809;28;19927;-65
2022/06/01 22:22:13;;;;;;;;;;;;;;;-145.66;100.00;59599.19;10523962;28;19955;-65
2022/06/01 22:27:16;;;;;;;;;;;;;;;-145.66;100.00;59599.19;10543997;28;19920;-65
2022/06/01 22:32:18;;;;;;;;;;;;;;;-145.66;100.00;59599.19;10537197;28;20298;-64
2022/06/01 22:37:21;;;;;;;;;;;;;;;-145.66;100.00;59599.19;10544984;28;19934;-64
2022/06/01 22:42:23;;;;;;;;;;;;;;;-145.66;100.00;59599.19;10525628;28;20370;-65
2022/06/01 22:47:27;;;;;;;;;;;;;;;-145.66;100.00;59599.19;10534799;28;20334;-64
2022/06/01 22:52:33;;;;;;;;;;;;;;;-145.66;100.00;59599.19;10543012;28;19927;-65
2022/06/01 22:57:37;;;;;;;;;;;;;;;-145.66;100.00;59599.19;10524821;28;19927;-64
2022/06/01 23:02:40;;;;;;;;;;;;;;;-145.66;100.00;59599.19;10543565;28;19927;-64
2022/06/01 23:07:44;;;;;;;;;;;;;;;-145.66;100.00;59599.19;10542158;28;20413;-64
2022/06/01 23:12:46;;;;;;;;;;;;;;;-145.66;100.00;59599.19;10541669;28;20284;-64
2022/06/01 23:17:48;;;;;;;;;;;;;;;-145.66;100.00;59599.19;10542521;28;19927;-64
2022/06/01 23:22:51;;;;;;;;;;;;;;;-145.66;100.00;59599.19;10542045;28;19919;-64
2022/06/01 23:27:53;;;;;;;;;;;;;;;-145.66;100.00;59599.19;10524033;28;19920;-64
2022/06/01 23:33:02;;;;;;;;;;;;;;;-145.66;100.00;59599.19;10542286;28;19924;-64
2022/06/01 23:38:04;;;;;;;;;;;;;;;-145.66;100.00;59599.19;10523269;28;19920;-64
2022/06/01 23:43:25;;;;;;;;;;;;;;;-145.66;100.00;59599.19;10540851;28;19934;-64
2022/06/01 23:54:12;;;;;;;;;;;;;;;-145.66;100.00;59599.19;10540390;28;19920;-64
2022/06/01 23:59:17;;;;;;;;;;;;;;;-145.66;100.00;59599.19;10541406;28;19920;-64
